Falken — SBCH — position and weather

sailwx.info

Track history (hours):
 
Tides and Currents Weather Stations Pressure Air Temp Water Temp Dewpoint Dewpoint Depression Visibility Wind Speed Wind Dir Waves Ship Positions

Falken (Sweden)

Last reported at 2018-Feb-21 17:37 UTC. Time now 2018-Feb-25 05:47 UTC.
Position N 57°42' E 011°40'.

Length 40 m; draft 4.2 m.

Type: Sailing vessel. MMSI: 265070000.

Date/timePositionNaut miles runAvg speedWind from/ knotsBaromVisibWave heightAir tempDewpointWater temp
2018-Feb-21 17:37N 57°42' E 011°40'0 0.0
2018-Feb-21 17:31N 57°42' E 011°40'1 3.0
2018-Feb-21 17:01N 57°41' E 011°41'5 9.7
2018-Feb-21 16:30N 57°36' E 011°40'510.0
2018-Feb-21 16:01N 57°31' E 011°40'510.3
2018-Feb-21 15:31N 57°26' E 011°44'510.4
2018-Feb-21 15:00N 57°22' E 011°48'510.5
2018-Feb-21 14:30N 57°17' E 011°52'68 9.2
2018-Feb-21 07:04N 56°12' E 012°30'1 9.8
2018-Feb-21 07:00N 56°11' E 012°31'510.7
2018-Feb-21 06:31N 56°06' E 012°34'510.9
2018-Feb-21 06:00N 56°02' E 012°41'0 0.7
2018-Feb-21 05:30N 56°03' E 012°41'0 0.0
2018-Feb-21 05:00N 56°03' E 012°41'0 0.0
2018-Feb-21 04:30N 56°03' E 012°41'0 0.0
2018-Feb-21 04:00N 56°03' E 012°41'0 0.0
2018-Feb-21 03:30N 56°03' E 012°41'0 0.0
2018-Feb-21 02:57N 56°03' E 012°41'0 0.0
2018-Feb-21 02:30N 56°03' E 012°41'0 0.0
2018-Feb-21 01:57N 56°03' E 012°41'0 0.0
2018-Feb-21 01:30N 56°03' E 012°41'0 0.0
2018-Feb-21 01:00N 56°03' E 012°41'0 0.0
2018-Feb-21 00:30N 56°03' E 012°41'0 0.0
2018-Feb-21 00:00N 56°03' E 012°41'0 0.0
2018-Feb-20 23:30N 56°03' E 012°41'0 0.0
2018-Feb-20 23:00N 56°03' E 012°41'0 0.0
2018-Feb-20 22:30N 56°03' E 012°41'0 0.0
2018-Feb-20 22:00N 56°03' E 012°41'0 0.0
2018-Feb-20 21:30N 56°03' E 012°41'0 0.0
2018-Feb-20 21:00N 56°03' E 012°41'0 0.0
2018-Feb-20 20:30N 56°03' E 012°41'0 0.0
2018-Feb-20 20:00N 56°03' E 012°41'0 0.0
2018-Feb-20 19:27N 56°03' E 012°41'0 0.0
2018-Feb-20 19:00N 56°03' E 012°41'0 0.0
2018-Feb-20 18:30N 56°03' E 012°41'0 0.0
2018-Feb-20 18:00N 56°03' E 012°41'0 0.0
2018-Feb-20 17:30N 56°03' E 012°41'0 0.0
2018-Feb-20 16:57N 56°03' E 012°41'0 1.0
2018-Feb-20 16:31N 56°02' E 012°41'3 6.7
2018-Feb-20 16:00N 55°59' E 012°42'510.2
2018-Feb-20 15:30N 55°54' E 012°44'510.0
2018-Feb-20 15:01N 55°49' E 012°46'510.3
2018-Feb-20 14:30N 55°45' E 012°51'5 9.9
2018-Feb-20 14:00N 55°41' E 012°55'4 7.6
2018-Feb-20 13:31N 55°37' E 012°54'510.1
2018-Feb-20 13:00N 55°33' E 012°48'5 9.7
2018-Feb-20 12:31N 55°29' E 012°44'5 9.5
2018-Feb-20 12:00N 55°24' E 012°43'5 9.5
2018-Feb-20 11:30N 55°20' E 012°42'5 8.9
2018-Feb-20 10:56N 55°17' E 012°50'47 2.7
2018-Feb-19 17:29N 55°22' E 014°12'6 8.9
2018-Feb-19 16:51N 55°25' E 014°20'4 8.9
2018-Feb-19 16:27N 55°28' E 014°24'4 9.0
2018-Feb-19 16:00N 55°31' E 014°29'27 8.9
2018-Feb-19 12:59N 55°49' E 015°04'5 9.3
2018-Feb-19 12:30N 55°52' E 015°10'5 9.3
2018-Feb-19 12:01N 55°55' E 015°16'5 9.3
2018-Feb-19 11:30N 55°58' E 015°22'4 8.8
2018-Feb-19 11:00N 56°01' E 015°27'4 8.6
2018-Feb-19 10:30N 56°04' E 015°33'4 8.7
2018-Feb-19 10:01N 56°08' E 015°36'1 2.2
2018-Feb-19 09:28N 56°09' E 015°35'0 0.2
2018-Feb-19 08:58N 56°09' E 015°35'0 0.3
2018-Feb-19 08:25N 56°09' E 015°35'0 0.0
2018-Feb-19 07:58N 56°09' E 015°35'0 0.0
2018-Feb-19 07:28N 56°09' E 015°35'0 0.0
2018-Feb-19 06:58N 56°09' E 015°35'0 0.0
2018-Feb-19 06:28N 56°09' E 015°35'0 0.0
2018-Feb-19 05:58N 56°09' E 015°35'0 0.0
2018-Feb-19 05:28N 56°09' E 015°35'0 0.0
2018-Feb-19 04:58N 56°09' E 015°35'0 0.0
2018-Feb-19 04:28N 56°09' E 015°35'0 0.0
2018-Feb-19 03:58N 56°09' E 015°35'0 0.0
2018-Feb-19 03:28N 56°09' E 015°35'0 0.0
2018-Feb-19 02:58N 56°09' E 015°35'0 0.0
2018-Feb-19 02:28N 56°09' E 015°35'0 0.0
2018-Feb-19 01:58N 56°09' E 015°35'0 0.0
2018-Feb-19 01:28N 56°09' E 015°35'0 0.0
2018-Feb-19 00:58N 56°09' E 015°35'0 0.0
2018-Feb-19 00:28N 56°09' E 015°35'0 0.0
2018-Feb-18 23:58N 56°09' E 015°35'0 0.0
2018-Feb-18 23:28N 56°09' E 015°35'0 0.0
2018-Feb-18 22:58N 56°09' E 015°35'0 0.0
2018-Feb-18 22:28N 56°09' E 015°35'0 0.0
2018-Feb-18 21:58N 56°09' E 015°35'0 0.0
2018-Feb-18 21:28N 56°09' E 015°35'0 0.0
2018-Feb-18 20:58N 56°09' E 015°35'0 0.0
2018-Feb-18 20:28N 56°09' E 015°35'0 0.0
2018-Feb-18 19:58N 56°09' E 015°35'0 0.0
2018-Feb-18 19:28N 56°09' E 015°35'0 0.0
2018-Feb-18 18:58N 56°09' E 015°35'0 0.0
2018-Feb-18 18:25N 56°09' E 015°35'0 0.0
2018-Feb-18 17:58N 56°09' E 015°35'0 0.0
2018-Feb-18 17:28N 56°09' E 015°35'0 0.0
2018-Feb-18 16:58N 56°09' E 015°35'0 0.0
2018-Feb-18 16:28N 56°09' E 015°35'0 0.0
2018-Feb-18 15:58N 56°09' E 015°35'0 0.0
2018-Feb-18 15:28N 56°09' E 015°35'0 0.0
2018-Feb-18 14:58N 56°09' E 015°35'0 0.0
2018-Feb-18 14:28N 56°09' E 015°35'0 0.0
2018-Feb-18 13:58N 56°09' E 015°35'0 0.0
2018-Feb-18 13:28N 56°09' E 015°35'0 0.0
2018-Feb-18 12:58N 56°09' E 015°35'0 0.0
2018-Feb-18 12:28N 56°09' E 015°35'0 0.0
2018-Feb-18 11:58N 56°09' E 015°35'0 0.0
2018-Feb-18 11:28N 56°09' E 015°35'0 0.0
2018-Feb-18 10:58N 56°09' E 015°35'0 0.0
2018-Feb-18 10:28N 56°09' E 015°35'0 0.0
2018-Feb-18 09:58N 56°09' E 015°35'0 0.0
2018-Feb-18 09:28N 56°09' E 015°35'0 0.0
2018-Feb-18 08:58N 56°09' E 015°35'0 0.0
2018-Feb-18 08:28N 56°09' E 015°35'0 0.0
2018-Feb-18 07:58N 56°09' E 015°35'0 0.0
2018-Feb-18 07:28N 56°09' E 015°35'0 0.0
2018-Feb-18 06:58N 56°09' E 015°35'0 0.0
2018-Feb-18 06:28N 56°09' E 015°35'0 0.0
2018-Feb-18 05:58N 56°09' E 015°35'0 0.0
2018-Feb-18 05:28N 56°09' E 015°35'0 0.0
2018-Feb-18 04:58N 56°09' E 015°35'0 0.0
2018-Feb-18 04:28N 56°09' E 015°35'0 0.0
2018-Feb-18 03:58N 56°09' E 015°35'0 0.0
2018-Feb-18 03:28N 56°09' E 015°35'0 0.0
2018-Feb-18 02:58N 56°09' E 015°35'0 0.0
2018-Feb-18 02:28N 56°09' E 015°35'0 0.0
2018-Feb-18 01:58N 56°09' E 015°35'0 0.0
2018-Feb-18 01:28N 56°09' E 015°35'0 0.0
2018-Feb-18 00:58N 56°09' E 015°35'0 0.0
2018-Feb-18 00:28N 56°09' E 015°35'0 0.0
2018-Feb-17 23:58N 56°09' E 015°35'0 0.0
2018-Feb-17 23:28N 56°09' E 015°35'0 0.0
2018-Feb-17 22:58N 56°09' E 015°35'0 0.0
2018-Feb-17 22:28N 56°09' E 015°35'0 0.0
2018-Feb-17 21:58N 56°09' E 015°35'0 0.0
2018-Feb-17 21:28N 56°09' E 015°35'0 0.0
2018-Feb-17 20:58N 56°09' E 015°35'0 0.0
2018-Feb-17 20:28N 56°09' E 015°35'0 0.0
2018-Feb-17 19:58N 56°09' E 015°35'0 0.0
2018-Feb-17 19:28N 56°09' E 015°35'0 0.0
2018-Feb-17 18:58N 56°09' E 015°35'0 0.0
2018-Feb-17 18:28N 56°09' E 015°35'0 0.0
2018-Feb-17 17:58N 56°09' E 015°35'0 0.0
2018-Feb-17 17:28N 56°09' E 015°35'0 0.0
2018-Feb-17 16:55N 56°09' E 015°35'0 0.0
2018-Feb-17 16:28N 56°09' E 015°35'0 0.0
2018-Feb-17 15:58N 56°09' E 015°35'0 0.0
2018-Feb-17 15:28N 56°09' E 015°35'0 0.0
2018-Feb-17 14:58N 56°09' E 015°35'0 0.0
2018-Feb-17 14:22N 56°09' E 015°35'0 0.0
2018-Feb-17 13:58N 56°09' E 015°35'0 0.0
2018-Feb-17 13:28N 56°09' E 015°35'0 0.0
2018-Feb-17 12:58N 56°09' E 015°35'0 0.0
2018-Feb-17 12:25N 56°09' E 015°35'0 0.0
2018-Feb-17 11:55N 56°09' E 015°35'0 0.0
2018-Feb-17 11:28N 56°09' E 015°35'0 0.0
2018-Feb-17 10:58N 56°09' E 015°35'0 0.0
2018-Feb-17 10:28N 56°09' E 015°35'0 0.0
2018-Feb-17 09:58N 56°09' E 015°35'0 0.0
2018-Feb-17 09:28N 56°09' E 015°35'0 0.0
2018-Feb-17 08:58N 56°09' E 015°35'0 0.0
2018-Feb-17 08:28N 56°09' E 015°35'0 0.0
2018-Feb-17 07:58N 56°09' E 015°35'0 0.0
2018-Feb-17 07:28N 56°09' E 015°35'0 0.0
2018-Feb-17 06:58N 56°09' E 015°35'0 0.0
2018-Feb-17 06:28N 56°09' E 015°35'0 0.0
2018-Feb-17 05:58N 56°09' E 015°35'0 0.0
2018-Feb-17 05:28N 56°09' E 015°35'0 0.0
2018-Feb-17 04:58N 56°09' E 015°35'0 0.0
2018-Feb-17 04:28N 56°09' E 015°35'0 0.0
2018-Feb-17 03:58N 56°09' E 015°35'0 0.0
2018-Feb-17 03:28N 56°09' E 015°35'0 0.0
2018-Feb-17 02:58N 56°09' E 015°35'0 0.0
2018-Feb-17 02:28N 56°09' E 015°35'0 0.0
2018-Feb-17 01:58N 56°09' E 015°35'0 0.0
2018-Feb-17 01:28N 56°09' E 015°35'0 0.0
2018-Feb-17 00:58N 56°09' E 015°35'0 0.0
2018-Feb-17 00:28N 56°09' E 015°35'0 0.0
2018-Feb-16 23:58N 56°09' E 015°35'0 0.0
2018-Feb-16 23:28N 56°09' E 015°35'0 0.0
2018-Feb-16 22:58N 56°09' E 015°35'0 0.0
2018-Feb-16 22:28N 56°09' E 015°35'0 0.0
2018-Feb-16 21:58N 56°09' E 015°35'0 0.0
2018-Feb-16 21:28N 56°09' E 015°35'0 0.0
2018-Feb-16 20:58N 56°09' E 015°35'0 0.0
2018-Feb-16 20:28N 56°09' E 015°35'0 0.0
2018-Feb-16 19:58N 56°09' E 015°35'0 0.0
2018-Feb-16 19:28N 56°09' E 015°35'0 0.0
2018-Feb-16 18:58N 56°09' E 015°35'0 0.0
2018-Feb-16 18:28N 56°09' E 015°35'0 0.0
2018-Feb-16 17:58N 56°09' E 015°35'0 0.0
2018-Feb-16 17:28N 56°09' E 015°35'0 0.0
2018-Feb-16 16:58N 56°09' E 015°35'0 0.0
2018-Feb-16 16:25N 56°09' E 015°35'0 0.0
2018-Feb-16 15:58N 56°09' E 015°35'0 0.0
2018-Feb-16 15:28N 56°09' E 015°35'0 0.0
2018-Feb-16 14:58N 56°09' E 015°35'0 0.0
2018-Feb-16 14:28N 56°09' E 015°35'0 0.0
2018-Feb-16 13:58N 56°09' E 015°35'0 0.0
2018-Feb-16 13:28N 56°09' E 015°35'0 0.0
2018-Feb-16 12:58N 56°09' E 015°35'0 0.0
2018-Feb-16 12:28N 56°09' E 015°35'0 0.0
2018-Feb-16 11:58N 56°09' E 015°35'0 0.0
2018-Feb-16 11:28N 56°09' E 015°35'0 0.0
2018-Feb-16 10:58N 56°09' E 015°35'0 0.0
2018-Feb-16 10:28N 56°09' E 015°35'0 0.0
2018-Feb-16 09:58N 56°09' E 015°35'0 0.0
2018-Feb-16 09:28N 56°09' E 015°35'0 0.0
2018-Feb-16 08:58N 56°09' E 015°35'0 0.0
2018-Feb-16 08:28N 56°09' E 015°35'0 0.0
2018-Feb-16 07:58N 56°09' E 015°35'0 0.0
2018-Feb-16 07:28N 56°09' E 015°35'0 0.0
2018-Feb-16 06:58N 56°09' E 015°35'0 0.0
2018-Feb-16 06:28N 56°09' E 015°35'0 0.0
2018-Feb-16 05:58N 56°09' E 015°35'0 0.0
2018-Feb-16 05:28N 56°09' E 015°35'0 0.0
2018-Feb-16 04:55N 56°09' E 015°35'0 0.0
2018-Feb-16 04:28N 56°09' E 015°35'0 0.0
2018-Feb-16 03:58N 56°09' E 015°35'0 0.0
2018-Feb-16 03:28N 56°09' E 015°35'0 0.0
2018-Feb-16 02:58N 56°09' E 015°35'0 0.0
2018-Feb-16 02:28N 56°09' E 015°35'0 0.0
2018-Feb-16 01:58N 56°09' E 015°35'0 0.0
2018-Feb-16 01:28N 56°09' E 015°35'0 0.0
2018-Feb-16 00:58N 56°09' E 015°35'0 0.0
2018-Feb-16 00:25N 56°09' E 015°35'0 0.0
2018-Feb-15 23:58N 56°09' E 015°35'0 0.0
2018-Feb-15 23:28N 56°09' E 015°35'0 0.0
2018-Feb-15 22:58N 56°09' E 015°35'0 0.0
2018-Feb-15 22:28N 56°09' E 015°35'0 0.0
2018-Feb-15 21:58N 56°09' E 015°35'0 0.0
2018-Feb-15 21:28N 56°09' E 015°35'0 0.0
2018-Feb-15 20:58N 56°09' E 015°35'0 0.0
2018-Feb-15 20:28N 56°09' E 015°35'0 0.0
2018-Feb-15 19:58N 56°09' E 015°35'0 0.0
2018-Feb-15 19:28N 56°09' E 015°35'0 0.0
2018-Feb-15 18:58N 56°09' E 015°35'0 0.0
2018-Feb-15 18:28N 56°09' E 015°35'0 0.0
2018-Feb-15 17:58N 56°09' E 015°35'0 0.0
2018-Feb-15 17:28N 56°09' E 015°35'0 0.0
2018-Feb-15 16:58N 56°09' E 015°35'0 0.0
2018-Feb-15 16:28N 56°09' E 015°35'0 0.0
2018-Feb-15 15:58N 56°09' E 015°35'0 0.0
2018-Feb-15 15:28N 56°09' E 015°35'0 0.0
2018-Feb-15 14:58N 56°09' E 015°35'0 0.0
2018-Feb-15 14:28N 56°09' E 015°35'0 0.0
2018-Feb-15 13:58N 56°09' E 015°35'0 0.0
2018-Feb-15 13:28N 56°09' E 015°35'0 0.0
2018-Feb-15 12:55N 56°09' E 015°35'0 0.0
2018-Feb-15 12:28N 56°09' E 015°35'0 0.0
2018-Feb-15 11:58N 56°09' E 015°35'0 0.0
2018-Feb-15 11:28N 56°09' E 015°35'0 0.0
2018-Feb-15 10:58N 56°09' E 015°35'0 0.0
2018-Feb-15 10:28N 56°09' E 015°35'0 0.0
2018-Feb-15 09:58N 56°09' E 015°35'0 0.0
2018-Feb-15 09:28N 56°09' E 015°35'0 0.0
2018-Feb-15 08:58N 56°09' E 015°35'0 0.0
2018-Feb-15 08:28N 56°09' E 015°35'0 0.0
2018-Feb-15 07:58N 56°09' E 015°35'  
Track history (hours):
 
Tides and Currents Weather Stations Pressure Air Temp Water Temp Dewpoint Dewpoint Depression Visibility Wind Speed Wind Dir Waves Ship Positions

Falken (Sweden)

Last reported at 2018-Feb-21 17:37 UTC. Time now 2018-Feb-25 05:47 UTC.
Position N 57°42' E 011°40'.

Length 40 m; draft 4.2 m.

Type: Sailing vessel. MMSI: 265070000.

Date/timePositionNaut miles runAvg speedWind from/ knotsBaromVisibWave heightAir tempDewpointWater temp
2018-Feb-21 17:37N 57°42' E 011°40'0 0.0
2018-Feb-21 17:31N 57°42' E 011°40'1 3.0
2018-Feb-21 17:01N 57°41' E 011°41'5 9.7
2018-Feb-21 16:30N 57°36' E 011°40'510.0
2018-Feb-21 16:01N 57°31' E 011°40'510.3
2018-Feb-21 15:31N 57°26' E 011°44'510.4
2018-Feb-21 15:00N 57°22' E 011°48'510.5
2018-Feb-21 14:30N 57°17' E 011°52'68 9.2
2018-Feb-21 07:04N 56°12' E 012°30'1 9.8
2018-Feb-21 07:00N 56°11' E 012°31'510.7
2018-Feb-21 06:31N 56°06' E 012°34'510.9
2018-Feb-21 06:00N 56°02' E 012°41'0 0.7
2018-Feb-21 05:30N 56°03' E 012°41'0 0.0
2018-Feb-21 05:00N 56°03' E 012°41'0 0.0
2018-Feb-21 04:30N 56°03' E 012°41'0 0.0
2018-Feb-21 04:00N 56°03' E 012°41'0 0.0
2018-Feb-21 03:30N 56°03' E 012°41'0 0.0
2018-Feb-21 02:57N 56°03' E 012°41'0 0.0
2018-Feb-21 02:30N 56°03' E 012°41'0 0.0
2018-Feb-21 01:57N 56°03' E 012°41'0 0.0
2018-Feb-21 01:30N 56°03' E 012°41'0 0.0
2018-Feb-21 01:00N 56°03' E 012°41'0 0.0
2018-Feb-21 00:30N 56°03' E 012°41'0 0.0
2018-Feb-21 00:00N 56°03' E 012°41'0 0.0
2018-Feb-20 23:30N 56°03' E 012°41'0 0.0
2018-Feb-20 23:00N 56°03' E 012°41'0 0.0
2018-Feb-20 22:30N 56°03' E 012°41'0 0.0
2018-Feb-20 22:00N 56°03' E 012°41'0 0.0
2018-Feb-20 21:30N 56°03' E 012°41'0 0.0
2018-Feb-20 21:00N 56°03' E 012°41'0 0.0
2018-Feb-20 20:30N 56°03' E 012°41'0 0.0
2018-Feb-20 20:00N 56°03' E 012°41'0 0.0
2018-Feb-20 19:27N 56°03' E 012°41'0 0.0
2018-Feb-20 19:00N 56°03' E 012°41'0 0.0
2018-Feb-20 18:30N 56°03' E 012°41'0 0.0
2018-Feb-20 18:00N 56°03' E 012°41'0 0.0
2018-Feb-20 17:30N 56°03' E 012°41'0 0.0
2018-Feb-20 16:57N 56°03' E 012°41'0 1.0
2018-Feb-20 16:31N 56°02' E 012°41'3 6.7
2018-Feb-20 16:00N 55°59' E 012°42'510.2
2018-Feb-20 15:30N 55°54' E 012°44'510.0
2018-Feb-20 15:01N 55°49' E 012°46'510.3
2018-Feb-20 14:30N 55°45' E 012°51'5 9.9
2018-Feb-20 14:00N 55°41' E 012°55'4 7.6
2018-Feb-20 13:31N 55°37' E 012°54'510.1
2018-Feb-20 13:00N 55°33' E 012°48'5 9.7
2018-Feb-20 12:31N 55°29' E 012°44'5 9.5
2018-Feb-20 12:00N 55°24' E 012°43'5 9.5
2018-Feb-20 11:30N 55°20' E 012°42'5 8.9
2018-Feb-20 10:56N 55°17' E 012°50'47 2.7
2018-Feb-19 17:29N 55°22' E 014°12'6 8.9
2018-Feb-19 16:51N 55°25' E 014°20'4 8.9
2018-Feb-19 16:27N 55°28' E 014°24'4 9.0
2018-Feb-19 16:00N 55°31' E 014°29'27 8.9
2018-Feb-19 12:59N 55°49' E 015°04'5 9.3
2018-Feb-19 12:30N 55°52' E 015°10'5 9.3
2018-Feb-19 12:01N 55°55' E 015°16'5 9.3
2018-Feb-19 11:30N 55°58' E 015°22'4 8.8
2018-Feb-19 11:00N 56°01' E 015°27'4 8.6
2018-Feb-19 10:30N 56°04' E 015°33'4 8.7
2018-Feb-19 10:01N 56°08' E 015°36'1 2.2
2018-Feb-19 09:28N 56°09' E 015°35'0 0.2
2018-Feb-19 08:58N 56°09' E 015°35'0 0.3
2018-Feb-19 08:25N 56°09' E 015°35'0 0.0
2018-Feb-19 07:58N 56°09' E 015°35'0 0.0
2018-Feb-19 07:28N 56°09' E 015°35'0 0.0
2018-Feb-19 06:58N 56°09' E 015°35'0 0.0
2018-Feb-19 06:28N 56°09' E 015°35'0 0.0
2018-Feb-19 05:58N 56°09' E 015°35'0 0.0
2018-Feb-19 05:28N 56°09' E 015°35'0 0.0
2018-Feb-19 04:58N 56°09' E 015°35'0 0.0
2018-Feb-19 04:28N 56°09' E 015°35'0 0.0
2018-Feb-19 03:58N 56°09' E 015°35'0 0.0
2018-Feb-19 03:28N 56°09' E 015°35'0 0.0
2018-Feb-19 02:58N 56°09' E 015°35'0 0.0
2018-Feb-19 02:28N 56°09' E 015°35'0 0.0
2018-Feb-19 01:58N 56°09' E 015°35'0 0.0
2018-Feb-19 01:28N 56°09' E 015°35'0 0.0
2018-Feb-19 00:58N 56°09' E 015°35'0 0.0
2018-Feb-19 00:28N 56°09' E 015°35'0 0.0
2018-Feb-18 23:58N 56°09' E 015°35'0 0.0
2018-Feb-18 23:28N 56°09' E 015°35'0 0.0
2018-Feb-18 22:58N 56°09' E 015°35'0 0.0
2018-Feb-18 22:28N 56°09' E 015°35'0 0.0
2018-Feb-18 21:58N 56°09' E 015°35'0 0.0
2018-Feb-18 21:28N 56°09' E 015°35'0 0.0
2018-Feb-18 20:58N 56°09' E 015°35'0 0.0
2018-Feb-18 20:28N 56°09' E 015°35'0 0.0
2018-Feb-18 19:58N 56°09' E 015°35'0 0.0
2018-Feb-18 19:28N 56°09' E 015°35'0 0.0
2018-Feb-18 18:58N 56°09' E 015°35'0 0.0
2018-Feb-18 18:25N 56°09' E 015°35'0 0.0
2018-Feb-18 17:58N 56°09' E 015°35'0 0.0
2018-Feb-18 17:28N 56°09' E 015°35'0 0.0
2018-Feb-18 16:58N 56°09' E 015°35'0 0.0
2018-Feb-18 16:28N 56°09' E 015°35'0 0.0
2018-Feb-18 15:58N 56°09' E 015°35'0 0.0
2018-Feb-18 15:28N 56°09' E 015°35'0 0.0
2018-Feb-18 14:58N 56°09' E 015°35'0 0.0
2018-Feb-18 14:28N 56°09' E 015°35'0 0.0
2018-Feb-18 13:58N 56°09' E 015°35'0 0.0
2018-Feb-18 13:28N 56°09' E 015°35'0 0.0
2018-Feb-18 12:58N 56°09' E 015°35'0 0.0
2018-Feb-18 12:28N 56°09' E 015°35'0 0.0
2018-Feb-18 11:58N 56°09' E 015°35'0 0.0
2018-Feb-18 11:28N 56°09' E 015°35'0 0.0
2018-Feb-18 10:58N 56°09' E 015°35'0 0.0
2018-Feb-18 10:28N 56°09' E 015°35'0 0.0
2018-Feb-18 09:58N 56°09' E 015°35'0 0.0
2018-Feb-18 09:28N 56°09' E 015°35'0 0.0
2018-Feb-18 08:58N 56°09' E 015°35'0 0.0
2018-Feb-18 08:28N 56°09' E 015°35'0 0.0
2018-Feb-18 07:58N 56°09' E 015°35'0 0.0
2018-Feb-18 07:28N 56°09' E 015°35'0 0.0
2018-Feb-18 06:58N 56°09' E 015°35'0 0.0
2018-Feb-18 06:28N 56°09' E 015°35'0 0.0
2018-Feb-18 05:58N 56°09' E 015°35'0 0.0
2018-Feb-18 05:28N 56°09' E 015°35'0 0.0
2018-Feb-18 04:58N 56°09' E 015°35'0 0.0
2018-Feb-18 04:28N 56°09' E 015°35'0 0.0
2018-Feb-18 03:58N 56°09' E 015°35'0 0.0
2018-Feb-18 03:28N 56°09' E 015°35'0 0.0
2018-Feb-18 02:58N 56°09' E 015°35'0 0.0
2018-Feb-18 02:28N 56°09' E 015°35'0 0.0
2018-Feb-18 01:58N 56°09' E 015°35'0 0.0
2018-Feb-18 01:28N 56°09' E 015°35'0 0.0
2018-Feb-18 00:58N 56°09' E 015°35'0 0.0
2018-Feb-18 00:28N 56°09' E 015°35'0 0.0
2018-Feb-17 23:58N 56°09' E 015°35'0 0.0
2018-Feb-17 23:28N 56°09' E 015°35'0 0.0
2018-Feb-17 22:58N 56°09' E 015°35'0 0.0
2018-Feb-17 22:28N 56°09' E 015°35'0 0.0
2018-Feb-17 21:58N 56°09' E 015°35'0 0.0
2018-Feb-17 21:28N 56°09' E 015°35'0 0.0
2018-Feb-17 20:58N 56°09' E 015°35'0 0.0
2018-Feb-17 20:28N 56°09' E 015°35'0 0.0
2018-Feb-17 19:58N 56°09' E 015°35'0 0.0
2018-Feb-17 19:28N 56°09' E 015°35'0 0.0
2018-Feb-17 18:58N 56°09' E 015°35'0 0.0
2018-Feb-17 18:28N 56°09' E 015°35'0 0.0
2018-Feb-17 17:58N 56°09' E 015°35'0 0.0
2018-Feb-17 17:28N 56°09' E 015°35'0 0.0
2018-Feb-17 16:55N 56°09' E 015°35'0 0.0
2018-Feb-17 16:28N 56°09' E 015°35'0 0.0
2018-Feb-17 15:58N 56°09' E 015°35'0 0.0
2018-Feb-17 15:28N 56°09' E 015°35'0 0.0
2018-Feb-17 14:58N 56°09' E 015°35'0 0.0
2018-Feb-17 14:22N 56°09' E 015°35'0 0.0
2018-Feb-17 13:58N 56°09' E 015°35'0 0.0
2018-Feb-17 13:28N 56°09' E 015°35'0 0.0
2018-Feb-17 12:58N 56°09' E 015°35'0 0.0
2018-Feb-17 12:25N 56°09' E 015°35'0 0.0
2018-Feb-17 11:55N 56°09' E 015°35'0 0.0
2018-Feb-17 11:28N 56°09' E 015°35'0 0.0
2018-Feb-17 10:58N 56°09' E 015°35'0 0.0
2018-Feb-17 10:28N 56°09' E 015°35'0 0.0
2018-Feb-17 09:58N 56°09' E 015°35'0 0.0
2018-Feb-17 09:28N 56°09' E 015°35'0 0.0
2018-Feb-17 08:58N 56°09' E 015°35'0 0.0
2018-Feb-17 08:28N 56°09' E 015°35'0 0.0
2018-Feb-17 07:58N 56°09' E 015°35'0 0.0
2018-Feb-17 07:28N 56°09' E 015°35'0 0.0
2018-Feb-17 06:58N 56°09' E 015°35'0 0.0
2018-Feb-17 06:28N 56°09' E 015°35'0 0.0
2018-Feb-17 05:58N 56°09' E 015°35'0 0.0
2018-Feb-17 05:28N 56°09' E 015°35'0 0.0
2018-Feb-17 04:58N 56°09' E 015°35'0 0.0
2018-Feb-17 04:28N 56°09' E 015°35'0 0.0
2018-Feb-17 03:58N 56°09' E 015°35'0 0.0
2018-Feb-17 03:28N 56°09' E 015°35'0 0.0
2018-Feb-17 02:58N 56°09' E 015°35'0 0.0
2018-Feb-17 02:28N 56°09' E 015°35'0 0.0
2018-Feb-17 01:58N 56°09' E 015°35'0 0.0
2018-Feb-17 01:28N 56°09' E 015°35'0 0.0
2018-Feb-17 00:58N 56°09' E 015°35'0 0.0
2018-Feb-17 00:28N 56°09' E 015°35'0 0.0
2018-Feb-16 23:58N 56°09' E 015°35'0 0.0
2018-Feb-16 23:28N 56°09' E 015°35'0 0.0
2018-Feb-16 22:58N 56°09' E 015°35'0 0.0
2018-Feb-16 22:28N 56°09' E 015°35'0 0.0
2018-Feb-16 21:58N 56°09' E 015°35'0 0.0
2018-Feb-16 21:28N 56°09' E 015°35'0 0.0
2018-Feb-16 20:58N 56°09' E 015°35'0 0.0
2018-Feb-16 20:28N 56°09' E 015°35'0 0.0
2018-Feb-16 19:58N 56°09' E 015°35'0 0.0
2018-Feb-16 19:28N 56°09' E 015°35'0 0.0
2018-Feb-16 18:58N 56°09' E 015°35'0 0.0
2018-Feb-16 18:28N 56°09' E 015°35'0 0.0
2018-Feb-16 17:58N 56°09' E 015°35'0 0.0
2018-Feb-16 17:28N 56°09' E 015°35'0 0.0
2018-Feb-16 16:58N 56°09' E 015°35'0 0.0
2018-Feb-16 16:25N 56°09' E 015°35'0 0.0
2018-Feb-16 15:58N 56°09' E 015°35'0 0.0
2018-Feb-16 15:28N 56°09' E 015°35'0 0.0
2018-Feb-16 14:58N 56°09' E 015°35'0 0.0
2018-Feb-16 14:28N 56°09' E 015°35'0 0.0
2018-Feb-16 13:58N 56°09' E 015°35'0 0.0
2018-Feb-16 13:28N 56°09' E 015°35'0 0.0
2018-Feb-16 12:58N 56°09' E 015°35'0 0.0
2018-Feb-16 12:28N 56°09' E 015°35'0 0.0
2018-Feb-16 11:58N 56°09' E 015°35'0 0.0
2018-Feb-16 11:28N 56°09' E 015°35'0 0.0
2018-Feb-16 10:58N 56°09' E 015°35'0 0.0
2018-Feb-16 10:28N 56°09' E 015°35'0 0.0
2018-Feb-16 09:58N 56°09' E 015°35'0 0.0
2018-Feb-16 09:28N 56°09' E 015°35'0 0.0
2018-Feb-16 08:58N 56°09' E 015°35'0 0.0
2018-Feb-16 08:28N 56°09' E 015°35'0 0.0
2018-Feb-16 07:58N 56°09' E 015°35'0 0.0
2018-Feb-16 07:28N 56°09' E 015°35'0 0.0
2018-Feb-16 06:58N 56°09' E 015°35'0 0.0
2018-Feb-16 06:28N 56°09' E 015°35'0 0.0
2018-Feb-16 05:58N 56°09' E 015°35'0 0.0
2018-Feb-16 05:28N 56°09' E 015°35'0 0.0
2018-Feb-16 04:55N 56°09' E 015°35'0 0.0
2018-Feb-16 04:28N 56°09' E 015°35'0 0.0
2018-Feb-16 03:58N 56°09' E 015°35'0 0.0
2018-Feb-16 03:28N 56°09' E 015°35'0 0.0
2018-Feb-16 02:58N 56°09' E 015°35'0 0.0
2018-Feb-16 02:28N 56°09' E 015°35'0 0.0
2018-Feb-16 01:58N 56°09' E 015°35'0 0.0
2018-Feb-16 01:28N 56°09' E 015°35'0 0.0
2018-Feb-16 00:58N 56°09' E 015°35'0 0.0
2018-Feb-16 00:25N 56°09' E 015°35'0 0.0
2018-Feb-15 23:58N 56°09' E 015°35'0 0.0
2018-Feb-15 23:28N 56°09' E 015°35'0 0.0
2018-Feb-15 22:58N 56°09' E 015°35'0 0.0
2018-Feb-15 22:28N 56°09' E 015°35'0 0.0
2018-Feb-15 21:58N 56°09' E 015°35'0 0.0
2018-Feb-15 21:28N 56°09' E 015°35'0 0.0
2018-Feb-15 20:58N 56°09' E 015°35'0 0.0
2018-Feb-15 20:28N 56°09' E 015°35'0 0.0
2018-Feb-15 19:58N 56°09' E 015°35'0 0.0
2018-Feb-15 19:28N 56°09' E 015°35'0 0.0
2018-Feb-15 18:58N 56°09' E 015°35'0 0.0
2018-Feb-15 18:28N 56°09' E 015°35'0 0.0
2018-Feb-15 17:58N 56°09' E 015°35'0 0.0
2018-Feb-15 17:28N 56°09' E 015°35'0 0.0
2018-Feb-15 16:58N 56°09' E 015°35'0 0.0
2018-Feb-15 16:28N 56°09' E 015°35'0 0.0
2018-Feb-15 15:58N 56°09' E 015°35'0 0.0
2018-Feb-15 15:28N 56°09' E 015°35'0 0.0
2018-Feb-15 14:58N 56°09' E 015°35'0 0.0
2018-Feb-15 14:28N 56°09' E 015°35'0 0.0
2018-Feb-15 13:58N 56°09' E 015°35'0 0.0
2018-Feb-15 13:28N 56°09' E 015°35'0 0.0
2018-Feb-15 12:55N 56°09' E 015°35'0 0.0
2018-Feb-15 12:28N 56°09' E 015°35'0 0.0
2018-Feb-15 11:58N 56°09' E 015°35'0 0.0
2018-Feb-15 11:28N 56°09' E 015°35'0 0.0
2018-Feb-15 10:58N 56°09' E 015°35'0 0.0
2018-Feb-15 10:28N 56°09' E 015°35'0 0.0
2018-Feb-15 09:58N 56°09' E 015°35'0 0.0
2018-Feb-15 09:28N 56°09' E 015°35'0 0.0
2018-Feb-15 08:58N 56°09' E 015°35'0 0.0
2018-Feb-15 08:28N 56°09' E 015°35'0 0.0
2018-Feb-15 07:58N 56°09' E 015°35'  

Dump ship's entire track history